Time,TemperatureF,DewpointF,PressureIn,WindDirection,WindDirectionDegrees,WindSpeedMPH,WindSpeedGustMPH,Humidity,HourlyPrecipIn,Conditions,Clouds,dailyrainin,SolarRadiationWatts/m^2,SoftwareType,DateUTC
2013-02-22 00:00:00,27.3,20.8,-100.00,SW,236,4.5,9.6,76,0.00,,,-99.99,1.0,HOBO +U30 +Weather +,2013-02-22 07:00:00,
2013-02-22 00:05:00,27.4,20.8,-100.00,SW,223,4.5,7.8,75,0.00,,,-99.99,1.0,HOBO +U30 +Weather +,2013-02-22 07:05:00,
2013-02-22 00:10:00,27.4,20.8,-100.00,WSW,244,4.0,7.8,75,0.00,,,-99.99,1.0,HOBO +U30 +Weather +,2013-02-22 07:10:00,
2013-02-22 00:15:00,27.6,20.8,-100.00,WSW,240,4.0,6.3,75,0.00,,,-99.99,1.0,HOBO +U30 +Weather +,2013-02-22 07:15:00,
2013-02-22 00:20:00,27.7,20.8,-100.00,WSW,237,6.3,11.9,75,0.00,,,-99.99,1.0,HOBO +U30 +Weather +,2013-02-22 07:20:00,
2013-02-22 00:25:00,27.8,20.9,-100.00,SW,226,3.4,6.7,74,0.00,,,-99.99,1.0,HOBO +U30 +Weather +,2013-02-22 07:25:00,
2013-02-22 00:30:00,27.8,20.8,-100.00,SW,230,2.2,7.4,74,0.00,,,-99.99,1.0,HOBO +U30 +Weather +,2013-02-22 07:30:00,
2013-02-22 00:35:00,27.9,20.8,-100.00,WSW,253,1.8,5.1,74,0.00,,,-99.99,1.0,HOBO +U30 +Weather +,2013-02-22 07:35:00,
2013-02-22 00:40:00,27.8,20.8,-100.00,West,265,1.1,4.5,74,0.00,,,-99.99,1.0,HOBO +U30 +Weather +,2013-02-22 07:40:00,
2013-02-22 00:45:00,27.8,20.8,-100.00,West,277,1.1,3.4,74,0.00,,,-99.99,1.0,HOBO +U30 +Weather +,2013-02-22 07:45:00,
2013-02-22 00:50:00,27.9,20.8,-100.00,West,268,2.2,6.3,74,0.00,,,-99.99,1.0,HOBO +U30 +Weather +,2013-02-22 07:50:00,
2013-02-22 00:55:00,28.1,20.9,-100.00,SW,236,4.5,8.9,73,0.00,,,-99.99,1.0,HOBO +U30 +Weather +,2013-02-22 07:55:00,
2013-02-22 01:00:00,28.1,20.7,-100.00,WSW,241,6.7,10.7,73,0.00,,,-99.99,1.0,HOBO +U30 +Weather +,2013-02-22 08:00:00,
2013-02-22 01:05:00,28.1,20.6,-100.00,WSW,246,6.7,10.7,73,0.00,,,-99.99,1.0,HOBO +U30 +Weather +,2013-02-22 08:05:00,
2013-02-22 01:10:00,28.1,20.6,-100.00,WSW,239,5.6,9.6,73,0.00,,,-99.99,1.0,HOBO +U30 +Weather +,2013-02-22 08:10:00,
2013-02-22 01:15:00,28.1,20.6,-100.00,WSW,246,4.5,8.5,73,0.00,,,-99.99,1.0,HOBO +U30 +Weather +,2013-02-22 08:15:00,
2013-02-22 01:20:00,28.0,20.3,-100.00,WSW,237,5.6,9.6,72,0.00,,,-99.99,1.0,HOBO +U30 +Weather +,2013-02-22 08:20:00,
2013-02-22 01:25:00,28.0,20.3,-100.00,SW,236,6.3,10.7,72,0.00,,,-99.99,1.0,HOBO +U30 +Weather +,2013-02-22 08:25:00,
2013-02-22 01:30:00,28.0,20.3,-100.00,WSW,237,6.7,14.1,72,0.00,,,-99.99,1.0,HOBO +U30 +Weather +,2013-02-22 08:30:00,
2013-02-22 01:35:00,28.0,20.2,-100.00,WSW,241,7.4,11.9,72,0.00,,,-99.99,1.0,HOBO +U30 +Weather +,2013-02-22 08:35:00,
2013-02-22 01:40:00,27.9,20.1,-100.00,WSW,248,7.4,11.9,72,0.00,,,-99.99,1.0,HOBO +U30 +Weather +,2013-02-22 08:40:00,
2013-02-22 01:45:00,27.9,20.2,-100.00,SW,229,7.8,16.3,72,0.00,,,-99.99,1.0,HOBO +U30 +Weather +,2013-02-22 08:45:00,
2013-02-22 01:50:00,27.9,20.2,-100.00,SW,234,8.5,14.5,72,0.00,,,-99.99,1.0,HOBO +U30 +Weather +,2013-02-22 08:50:00,
2013-02-22 01:55:00,27.9,20.2,-100.00,SW,236,7.4,13.0,72,0.00,,,-99.99,1.0,HOBO +U30 +Weather +,2013-02-22 08:55:00,
2013-02-22 02:00:00,28.0,20.3,-100.00,WSW,247,6.3,9.6,72,0.00,,,-99.99,1.0,HOBO +U30 +Weather +,2013-02-22 09:00:00,
2013-02-22 02:05:00,28.0,20.3,-100.00,WSW,241,7.8,11.9,72,0.00,,,-99.99,1.0,HOBO +U30 +Weather +,2013-02-22 09:05:00,
2013-02-22 02:10:00,27.9,20.2,-100.00,WSW,243,7.8,13.4,72,0.00,,,-99.99,1.0,HOBO +U30 +Weather +,2013-02-22 09:10:00,
2013-02-22 02:15:00,27.9,20.2,-100.00,SW,229,6.3,11.9,72,0.00,,,-99.99,1.0,HOBO +U30 +Weather +,2013-02-22 09:15:00,
2013-02-22 02:20:00,28.0,20.2,-100.00,SW,234,6.7,12.3,72,0.00,,,-99.99,1.0,HOBO +U30 +Weather +,2013-02-22 09:20:00,
2013-02-22 02:25:00,28.1,20.2,-100.00,WSW,240,6.7,14.5,72,0.00,,,-99.99,1.0,HOBO +U30 +Weather +,2013-02-22 09:25:00,
2013-02-22 02:30:00,28.0,20.0,-100.00,WSW,243,8.5,17.0,71,0.00,,,-99.99,1.0,HOBO +U30 +Weather +,2013-02-22 09:30:00,
2013-02-22 02:35:00,28.0,20.0,-100.00,WSW,237,7.4,13.4,71,0.00,,,-99.99,1.0,HOBO +U30 +Weather +,2013-02-22 09:35:00,
2013-02-22 02:40:00,28.0,20.1,-100.00,SW,233,6.7,11.2,71,0.00,,,-99.99,1.0,HOBO +U30 +Weather +,2013-02-22 09:40:00,
2013-02-22 02:45:00,27.9,20.0,-100.00,SW,225,5.6,11.2,71,0.00,,,-99.99,1.0,HOBO +U30 +Weather +,2013-02-22 09:45:00,
2013-02-22 02:50:00,27.9,19.9,-100.00,SW,225,9.6,15.2,71,0.00,,,-99.99,1.0,HOBO +U30 +Weather +,2013-02-22 09:50:00,
2013-02-22 02:55:00,28.0,20.0,-100.00,SW,223,8.5,14.5,71,0.00,,,-99.99,1.0,HOBO +U30 +Weather +,2013-02-22 09:55:00,
2013-02-22 03:00:00,28.0,20.0,-100.00,SW,223,7.4,14.5,71,0.00,,,-99.99,1.0,HOBO +U30 +Weather +,2013-02-22 10:00:00,
2013-02-22 03:05:00,28.1,20.0,-100.00,SW,225,7.8,13.0,71,0.00,,,-99.99,1.0,HOBO +U30 +Weather +,2013-02-22 10:05:00,
2013-02-22 03:10:00,28.1,19.9,-100.00,SW,227,9.6,17.4,71,0.00,,,-99.99,1.0,HOBO +U30 +Weather +,2013-02-22 10:10:00,
2013-02-22 03:15:00,28.0,19.8,-100.00,SW,232,10.1,15.2,70,0.00,,,-99.99,1.0,HOBO +U30 +Weather +,2013-02-22 10:15:00,
2013-02-22 03:20:00,28.1,19.8,-100.00,SW,229,8.9,14.1,70,0.00,,,-99.99,1.0,HOBO +U30 +Weather +,2013-02-22 10:20:00,
2013-02-22 03:25:00,28.1,19.9,-100.00,SW,226,6.3,12.3,70,0.00,,,-99.99,1.0,HOBO +U30 +Weather +,2013-02-22 10:25:00,
2013-02-22 03:30:00,28.0,19.8,-100.00,SW,233,5.6,12.3,70,0.00,,,-99.99,1.0,HOBO +U30 +Weather +,2013-02-22 10:30:00,
2013-02-22 03:35:00,28.0,19.8,-100.00,SW,225,6.7,11.2,71,0.00,,,-99.99,1.0,HOBO +U30 +Weather +,2013-02-22 10:35:00,
2013-02-22 03:40:00,28.0,19.7,-100.00,SW,226,8.5,17.0,70,0.00,,,-99.99,1.0,HOBO +U30 +Weather +,2013-02-22 10:40:00,
2013-02-22 03:45:00,28.0,19.7,-100.00,SW,229,8.5,13.4,70,0.00,,,-99.99,1.0,HOBO +U30 +Weather +,2013-02-22 10:45:00,
2013-02-22 03:50:00,27.9,19.6,-100.00,SW,230,7.4,11.9,70,0.00,,,-99.99,1.0,HOBO +U30 +Weather +,2013-02-22 10:50:00,
2013-02-22 03:55:00,27.6,19.5,-100.00,SW,232,7.4,11.9,71,0.00,,,-99.99,1.0,HOBO +U30 +Weather +,2013-02-22 10:55:00,
2013-02-22 04:00:00,27.5,19.4,-100.00,SW,229,7.4,14.5,71,0.00,,,-99.99,1.0,HOBO +U30 +Weather +,2013-02-22 11:00:00,
2013-02-22 04:05:00,27.4,19.5,-100.00,SW,230,7.4,11.2,71,0.00,,,-99.99,1.0,HOBO +U30 +Weather +,2013-02-22 11:05:00,
2013-02-22 04:10:00,27.4,19.4,-100.00,SW,233,7.4,12.3,71,0.00,,,-99.99,1.0,HOBO +U30 +Weather +,2013-02-22 11:10:00,
2013-02-22 04:15:00,27.4,19.4,-100.00,SW,234,6.7,10.1,71,0.00,,,-99.99,1.0,HOBO +U30 +Weather +,2013-02-22 11:15:00,
2013-02-22 04:20:00,27.4,19.5,-100.00,SW,229,7.4,13.4,71,0.00,,,-99.99,1.0,HOBO +U30 +Weather +,2013-02-22 11:20:00,
2013-02-22 04:25:00,27.4,19.5,-100.00,SW,234,7.4,15.2,71,0.00,,,-99.99,1.0,HOBO +U30 +Weather +,2013-02-22 11:25:00,
2013-02-22 04:30:00,27.5,19.4,-100.00,WSW,237,9.6,15.9,71,0.00,,,-99.99,1.0,HOBO +U30 +Weather +,2013-02-22 11:30:00,
2013-02-22 04:35:00,27.3,19.4,-100.00,SW,232,7.8,14.5,71,0.00,,,-99.99,1.0,HOBO +U30 +Weather +,2013-02-22 11:35:00,
2013-02-22 04:40:00,27.2,19.4,-100.00,SW,225,7.4,11.9,72,0.00,,,-99.99,1.0,HOBO +U30 +Weather +,2013-02-22 11:40:00,
2013-02-22 04:45:00,27.2,19.4,-100.00,SW,226,7.8,13.0,72,0.00,,,-99.99,1.0,HOBO +U30 +Weather +,2013-02-22 11:45:00,
2013-02-22 04:50:00,27.2,19.4,-100.00,SW,230,7.8,16.3,72,0.00,,,-99.99,1.0,HOBO +U30 +Weather +,2013-02-22 11:50:00,
2013-02-22 04:55:00,27.3,19.5,-100.00,SW,227,6.7,14.5,72,0.00,,,-99.99,1.0,HOBO +U30 +Weather +,2013-02-22 11:55:00,
2013-02-22 05:00:00,27.3,19.5,-100.00,SW,229,7.4,12.3,72,0.00,,,-99.99,1.0,HOBO +U30 +Weather +,2013-02-22 12:00:00,
2013-02-22 05:05:00,27.3,19.5,-100.00,SW,227,6.3,13.4,72,0.00,,,-99.99,1.0,HOBO +U30 +Weather +,2013-02-22 12:05:00,
2013-02-22 05:10:00,27.3,19.5,-100.00,SW,232,5.6,10.1,71,0.00,,,-99.99,1.0,HOBO +U30 +Weather +,2013-02-22 12:10:00,
2013-02-22 05:15:00,27.3,19.5,-100.00,SW,234,6.3,11.9,71,0.00,,,-99.99,1.0,HOBO +U30 +Weather +,2013-02-22 12:15:00,
2013-02-22 05:20:00,27.4,19.4,-100.00,SW,230,6.7,10.7,71,0.00,,,-99.99,1.0,HOBO +U30 +Weather +,2013-02-22 12:20:00,
2013-02-22 05:25:00,27.4,19.4,-100.00,SW,229,5.6,11.2,71,0.00,,,-99.99,1.0,HOBO +U30 +Weather +,2013-02-22 12:25:00,
2013-02-22 05:30:00,27.4,19.3,-100.00,SW,229,5.6,13.0,71,0.00,,,-99.99,1.0,HOBO +U30 +Weather +,2013-02-22 12:30:00,
2013-02-22 05:35:00,27.3,19.2,-100.00,WSW,241,5.1,8.9,71,0.00,,,-99.99,1.0,HOBO +U30 +Weather +,2013-02-22 12:35:00,
2013-02-22 05:40:00,27.2,19.1,-100.00,WSW,240,6.3,13.0,71,0.00,,,-99.99,1.0,HOBO +U30 +Weather +,2013-02-22 12:40:00,
2013-02-22 05:45:00,27.2,19.0,-100.00,WSW,243,6.7,11.9,71,0.00,,,-99.99,1.0,HOBO +U30 +Weather +,2013-02-22 12:45:00,
2013-02-22 05:50:00,27.1,19.0,-100.00,WSW,250,7.4,11.2,71,0.00,,,-99.99,1.0,HOBO +U30 +Weather +,2013-02-22 12:50:00,
2013-02-22 05:55:00,27.0,19.0,-100.00,WSW,246,6.7,10.7,71,0.00,,,-99.99,1.0,HOBO +U30 +Weather +,2013-02-22 12:55:00,
2013-02-22 06:00:00,26.9,18.9,-100.00,WSW,246,8.5,13.0,71,0.00,,,-99.99,1.0,HOBO +U30 +Weather +,2013-02-22 13:00:00,
2013-02-22 06:05:00,26.8,18.8,-100.00,WSW,246,8.9,13.4,71,0.00,,,-99.99,1.0,HOBO +U30 +Weather +,2013-02-22 13:05:00,
2013-02-22 06:10:00,26.6,18.9,-100.00,WSW,243,7.4,10.1,72,0.00,,,-99.99,1.0,HOBO +U30 +Weather +,2013-02-22 13:10:00,
2013-02-22 06:15:00,26.6,18.8,-100.00,WSW,244,7.8,12.3,71,0.00,,,-99.99,1.0,HOBO +U30 +Weather +,2013-02-22 13:15:00,
2013-02-22 06:20:00,26.5,18.7,-100.00,WSW,244,7.8,11.9,71,0.00,,,-99.99,1.0,HOBO +U30 +Weather +,2013-02-22 13:20:00,
2013-02-22 06:25:00,26.4,18.5,-100.00,WSW,248,7.4,14.1,71,0.00,,,-99.99,1.0,HOBO +U30 +Weather +,2013-02-22 13:25:00,
2013-02-22 06:30:00,26.4,18.5,-100.00,WSW,247,6.7,13.4,71,0.00,,,-99.99,1.0,HOBO +U30 +Weather +,2013-02-22 13:30:00,
2013-02-22 06:35:00,26.3,18.4,-100.00,WSW,248,7.8,13.0,71,0.00,,,-99.99,1.0,HOBO +U30 +Weather +,2013-02-22 13:35:00,
2013-02-22 06:40:00,26.2,18.3,-100.00,WSW,247,8.9,14.1,71,0.00,,,-99.99,1.0,HOBO +U30 +Weather +,2013-02-22 13:40:00,
2013-02-22 06:45:00,26.3,18.3,-100.00,WSW,250,8.9,13.4,71,0.00,,,-99.99,1.0,HOBO +U30 +Weather +,2013-02-22 13:45:00,
2013-02-22 06:50:00,26.2,18.3,-100.00,WSW,243,9.6,16.3,71,0.00,,,-99.99,1.0,HOBO +U30 +Weather +,2013-02-22 13:50:00,
2013-02-22 06:55:00,26.1,18.2,-100.00,WSW,247,9.6,14.5,71,0.00,,,-99.99,1.0,HOBO +U30 +Weather +,2013-02-22 13:55:00,
2013-02-22 07:00:00,26.0,18.2,-100.00,WSW,248,10.1,15.9,72,0.00,,,-99.99,2.0,HOBO +U30 +Weather +,2013-02-22 14:00:00,
2013-02-22 07:05:00,25.9,18.2,-100.00,WSW,246,8.9,14.1,72,0.00,,,-99.99,3.0,HOBO +U30 +Weather +,2013-02-22 14:05:00,
2013-02-22 07:10:00,25.7,18.2,-100.00,WSW,248,8.5,13.4,72,0.00,,,-99.99,7.0,HOBO +U30 +Weather +,2013-02-22 14:10:00,
2013-02-22 07:15:00,25.6,18.2,-100.00,WSW,250,8.5,12.3,73,0.00,,,-99.99,9.0,HOBO +U30 +Weather +,2013-02-22 14:15:00,
2013-02-22 07:20:00,25.6,18.3,-100.00,WSW,250,8.5,11.9,73,0.00,,,-99.99,11.0,HOBO +U30 +Weather +,2013-02-22 14:20:00,
2013-02-22 07:25:00,25.7,18.4,-100.00,WSW,250,7.4,12.3,73,0.00,,,-99.99,17.0,HOBO +U30 +Weather +,2013-02-22 14:25:00,
2013-02-22 07:30:00,25.7,18.4,-100.00,WSW,248,8.5,13.4,73,0.00,,,-99.99,23.0,HOBO +U30 +Weather +,2013-02-22 14:30:00,
2013-02-22 07:35:00,25.7,18.4,-100.00,WSW,250,7.4,10.7,73,0.00,,,-99.99,27.0,HOBO +U30 +Weather +,2013-02-22 14:35:00,
2013-02-22 07:40:00,25.8,18.4,-100.00,WSW,250,6.7,10.1,73,0.00,,,-99.99,32.0,HOBO +U30 +Weather +,2013-02-22 14:40:00,
2013-02-22 07:45:00,26.0,18.5,-100.00,WSW,251,6.7,10.7,72,0.00,,,-99.99,43.0,HOBO +U30 +Weather +,2013-02-22 14:45:00,
2013-02-22 07:50:00,25.9,18.4,-100.00,West,261,5.6,8.9,73,0.00,,,-99.99,41.0,HOBO +U30 +Weather +,2013-02-22 14:50:00,
2013-02-22 07:55:00,25.8,18.4,-100.00,WSW,250,5.1,8.5,73,0.00,,,-99.99,47.0,HOBO +U30 +Weather +,2013-02-22 14:55:00,
2013-02-22 08:00:00,25.8,18.4,-100.00,WSW,246,6.7,10.7,73,0.00,,,-99.99,66.0,HOBO +U30 +Weather +,2013-02-22 15:00:00,
2013-02-22 08:05:00,26.3,18.8,-100.00,WSW,250,6.7,10.1,72,0.00,,,-99.99,197.0,HOBO +U30 +Weather +,2013-02-22 15:05:00,
2013-02-22 08:10:00,26.1,18.5,-100.00,WSW,244,6.3,10.7,72,0.00,,,-99.99,121.0,HOBO +U30 +Weather +,2013-02-22 15:10:00,
2013-02-22 08:15:00,26.3,18.7,-100.00,WSW,247,6.7,10.7,72,0.00,,,-99.99,89.0,HOBO +U30 +Weather +,2013-02-22 15:15:00,
2013-02-22 08:20:00,26.7,18.8,-100.00,WSW,243,6.7,10.1,71,0.00,,,-99.99,89.0,HOBO +U30 +Weather +,2013-02-22 15:20:00,
2013-02-22 08:25:00,27.1,19.0,-100.00,WSW,247,6.3,11.2,71,0.00,,,-99.99,106.0,HOBO +U30 +Weather +,2013-02-22 15:25:00,
2013-02-22 08:30:00,27.5,19.1,-100.00,WSW,250,6.7,10.7,70,0.00,,,-99.99,128.0,HOBO +U30 +Weather +,2013-02-22 15:30:00,
2013-02-22 08:35:00,28.0,19.1,-100.00,SW,234,6.3,10.7,68,0.00,,,-99.99,131.0,HOBO +U30 +Weather +,2013-02-22 15:35:00,
2013-02-22 08:40:00,28.1,18.9,-100.00,WSW,241,6.7,10.7,68,0.00,,,-99.99,114.0,HOBO +U30 +Weather +,2013-02-22 15:40:00,
2013-02-22 08:45:00,28.6,19.3,-100.00,WSW,243,6.3,9.6,67,0.00,,,-99.99,141.0,HOBO +U30 +Weather +,2013-02-22 15:45:00,
2013-02-22 08:50:00,28.7,19.1,-100.00,SW,233,6.3,10.1,66,0.00,,,-99.99,157.0,HOBO +U30 +Weather +,2013-02-22 15:50:00,
2013-02-22 08:55:00,28.9,18.9,-100.00,WSW,240,6.7,12.3,65,0.00,,,-99.99,301.0,HOBO +U30 +Weather +,2013-02-22 15:55:00,
2013-02-22 09:00:00,29.3,18.9,-100.00,SW,232,8.5,13.0,64,0.00,,,-99.99,294.0,HOBO +U30 +Weather +,2013-02-22 16:00:00,
2013-02-22 09:05:00,30.1,19.3,-100.00,SW,220,6.7,11.2,63,0.00,,,-99.99,317.0,HOBO +U30 +Weather +,2013-02-22 16:05:00,
2013-02-22 09:10:00,30.2,19.1,-100.00,SW,236,6.3,11.2,62,0.00,,,-99.99,319.0,HOBO +U30 +Weather +,2013-02-22 16:10:00,
2013-02-22 09:15:00,31.0,19.5,-100.00,SW,225,7.4,11.2,62,0.00,,,-99.99,313.0,HOBO +U30 +Weather +,2013-02-22 16:15:00,
2013-02-22 09:20:00,31.1,19.1,-100.00,SW,216,10.1,13.4,60,0.00,,,-99.99,331.0,HOBO +U30 +Weather +,2013-02-22 16:20:00,
2013-02-22 09:25:00,31.6,19.1,-100.00,SW,229,8.5,12.3,59,0.00,,,-99.99,348.0,HOBO +U30 +Weather +,2013-02-22 16:25:00,
2013-02-22 09:30:00,31.9,19.2,-100.00,SW,223,8.9,15.2,58,0.00,,,-99.99,356.0,HOBO +U30 +Weather +,2013-02-22 16:30:00,
2013-02-22 09:35:00,32.2,19.2,-100.00,WSW,247,6.7,13.4,58,0.00,,,-99.99,373.0,HOBO +U30 +Weather +,2013-02-22 16:35:00,
2013-02-22 09:40:00,32.6,19.0,-100.00,SW,223,7.8,11.9,56,0.00,,,-99.99,386.0,HOBO +U30 +Weather +,2013-02-22 16:40:00,
2013-02-22 09:45:00,32.9,19.0,-100.00,SW,227,7.4,11.2,56,0.00,,,-99.99,397.0,HOBO +U30 +Weather +,2013-02-22 16:45:00,
2013-02-22 09:50:00,32.9,19.0,-100.00,WSW,246,8.9,14.1,56,0.00,,,-99.99,406.0,HOBO +U30 +Weather +,2013-02-22 16:50:00,
2013-02-22 09:55:00,33.5,19.1,-100.00,SW,219,8.9,15.2,55,0.00,,,-99.99,414.0,HOBO +U30 +Weather +,2013-02-22 16:55:00,
2013-02-22 10:00:00,34.0,19.1,-100.00,SW,219,8.9,14.5,54,0.00,,,-99.99,424.0,HOBO +U30 +Weather +,2013-02-22 17:00:00,
2013-02-22 10:05:00,33.7,18.6,-100.00,WSW,248,9.6,14.5,53,0.00,,,-99.99,432.0,HOBO +U30 +Weather +,2013-02-22 17:05:00,
2013-02-22 10:10:00,34.6,18.8,-100.00,WSW,237,7.4,14.5,52,0.00,,,-99.99,441.0,HOBO +U30 +Weather +,2013-02-22 17:10:00,
2013-02-22 10:15:00,35.1,19.0,-100.00,SW,229,8.9,18.1,51,0.00,,,-99.99,449.0,HOBO +U30 +Weather +,2013-02-22 17:15:00,
2013-02-22 10:20:00,34.9,18.6,-100.00,WSW,240,9.6,15.9,51,0.00,,,-99.99,458.0,HOBO +U30 +Weather +,2013-02-22 17:20:00,
2013-02-22 10:25:00,35.2,18.5,-100.00,SW,234,10.1,15.2,50,0.00,,,-99.99,464.0,HOBO +U30 +Weather +,2013-02-22 17:25:00,
2013-02-22 10:30:00,36.3,18.8,-100.00,SW,229,8.5,15.9,48,0.00,,,-99.99,473.0,HOBO +U30 +Weather +,2013-02-22 17:30:00,
2013-02-22 10:35:00,36.8,18.9,-100.00,SW,230,8.5,15.9,47,0.00,,,-99.99,479.0,HOBO +U30 +Weather +,2013-02-22 17:35:00,
2013-02-22 10:40:00,36.8,18.2,-100.00,SW,223,10.1,18.6,46,0.00,,,-99.99,488.0,HOBO +U30 +Weather +,2013-02-22 17:40:00,
2013-02-22 10:45:00,37.2,18.5,-100.00,SW,233,9.6,17.0,46,0.00,,,-99.99,496.0,HOBO +U30 +Weather +,2013-02-22 17:45:00,
2013-02-22 10:50:00,37.0,17.7,-100.00,SW,215,11.2,17.4,45,0.00,,,-99.99,502.0,HOBO +U30 +Weather +,2013-02-22 17:50:00,
2013-02-22 10:55:00,37.0,17.8,-100.00,SW,215,13.0,17.4,45,0.00,,,-99.99,508.0,HOBO +U30 +Weather +,2013-02-22 17:55:00,
2013-02-22 11:00:00,37.6,18.0,-100.00,SW,234,8.9,15.2,44,0.00,,,-99.99,512.0,HOBO +U30 +Weather +,2013-02-22 18:00:00,
2013-02-22 11:05:00,37.4,17.7,-100.00,SW,225,13.0,19.7,44,0.00,,,-99.99,519.0,HOBO +U30 +Weather +,2013-02-22 18:05:00,
2013-02-22 11:10:00,38.6,17.7,-100.00,SW,226,8.5,15.2,42,0.00,,,-99.99,526.0,HOBO +U30 +Weather +,2013-02-22 18:10:00,
2013-02-22 11:15:00,39.3,18.4,-100.00,SW,233,7.8,15.9,42,0.00,,,-99.99,531.0,HOBO +U30 +Weather +,2013-02-22 18:15:00,
2013-02-22 11:20:00,38.1,17.9,-100.00,WSW,237,10.1,16.3,43,0.00,,,-99.99,534.0,HOBO +U30 +Weather +,2013-02-22 18:20:00,
2013-02-22 11:25:00,37.9,17.1,-100.00,WSW,241,10.7,18.1,42,0.00,,,-99.99,538.0,HOBO +U30 +Weather +,2013-02-22 18:25:00,
2013-02-22 11:55:00,40.0,18.3,-100.00,SW,218,12.3,19.2,41,0.00,,,-99.99,558.0,HOBO +U30 +Weather +,2013-02-22 18:55:00,
2013-02-22 12:00:00,40.1,17.9,-100.00,SSW,211,11.9,19.7,40,0.00,,,-99.99,559.0,HOBO +U30 +Weather +,2013-02-22 19:00:00,
2013-02-22 12:05:00,39.1,18.0,-100.00,SSW,212,14.5,23.0,42,0.00,,,-99.99,559.0,HOBO +U30 +Weather +,2013-02-22 19:05:00,
2013-02-22 12:10:00,39.1,17.9,-100.00,SW,216,14.1,19.7,41,0.00,,,-99.99,562.0,HOBO +U30 +Weather +,2013-02-22 19:10:00,
2013-02-22 12:15:00,39.9,18.6,-100.00,SW,219,13.4,22.6,41,0.00,,,-99.99,564.0,HOBO +U30 +Weather +,2013-02-22 19:15:00,
2013-02-22 12:20:00,39.3,18.2,-100.00,SW,215,15.2,23.0,42,0.00,,,-99.99,566.0,HOBO +U30 +Weather +,2013-02-22 19:20:00,
2013-02-22 12:25:00,40.9,19.5,-100.00,SSW,209,11.9,21.5,41,0.00,,,-99.99,566.0,HOBO +U30 +Weather +,2013-02-22 19:25:00,
2013-02-22 12:30:00,40.4,18.6,-100.00,SSW,212,11.9,18.6,41,0.00,,,-99.99,567.0,HOBO +U30 +Weather +,2013-02-22 19:30:00,
2013-02-22 12:35:00,40.9,19.4,-100.00,SW,218,11.2,18.1,41,0.00,,,-99.99,564.0,HOBO +U30 +Weather +,2013-02-22 19:35:00,
2013-02-22 12:40:00,41.1,17.6,-100.00,SSW,204,12.3,19.7,38,0.00,,,-99.99,564.0,HOBO +U30 +Weather +,2013-02-22 19:40:00,
2013-02-22 12:45:00,41.1,17.6,-100.00,SSW,204,13.0,21.9,38,0.00,,,-99.99,564.0,HOBO +U30 +Weather +,2013-02-22 19:45:00,
2013-02-22 12:50:00,40.9,17.5,-100.00,SSW,213,14.1,24.2,38,0.00,,,-99.99,563.0,HOBO +U30 +Weather +,2013-02-22 19:50:00,
2013-02-22 12:55:00,41.6,18.0,-100.00,SW,215,11.9,20.4,38,0.00,,,-99.99,562.0,HOBO +U30 +Weather +,2013-02-22 19:55:00,
2013-02-22 13:00:00,41.5,18.1,-100.00,SSW,201,11.9,20.8,38,0.00,,,-99.99,559.0,HOBO +U30 +Weather +,2013-02-22 20:00:00,
2013-02-22 13:05:00,41.3,17.1,-100.00,SW,215,11.2,20.4,37,0.00,,,-99.99,558.0,HOBO +U30 +Weather +,2013-02-22 20:05:00,
2013-02-22 13:10:00,41.7,18.2,-100.00,SSW,212,12.3,18.1,38,0.00,,,-99.99,557.0,HOBO +U30 +Weather +,2013-02-22 20:10:00,
2013-02-22 13:15:00,41.6,17.4,-100.00,SSW,212,11.9,18.1,37,0.00,,,-99.99,559.0,HOBO +U30 +Weather +,2013-02-22 20:15:00,
2013-02-22 13:20:00,42.1,17.0,-100.00,SSW,212,12.3,18.6,35,0.00,,,-99.99,578.0,HOBO +U30 +Weather +,2013-02-22 20:20:00,
2013-02-22 13:25:00,42.0,17.0,-100.00,SW,218,8.9,18.1,36,0.00,,,-99.99,609.0,HOBO +U30 +Weather +,2013-02-22 20:25:00,
2013-02-22 13:30:00,42.2,16.4,-100.00,SW,227,9.6,18.6,34,0.00,,,-99.99,556.0,HOBO +U30 +Weather +,2013-02-22 20:30:00,
2013-02-22 13:35:00,42.4,17.2,-100.00,SW,215,12.3,22.6,35,0.00,,,-99.99,566.0,HOBO +U30 +Weather +,2013-02-22 20:35:00,
2013-02-22 13:40:00,42.6,16.7,-100.00,SW,219,10.7,18.1,34,0.00,,,-99.99,521.0,HOBO +U30 +Weather +,2013-02-22 20:40:00,
2013-02-22 13:45:00,41.4,16.6,-100.00,SSW,213,14.5,21.9,36,0.00,,,-99.99,399.0,HOBO +U30 +Weather +,2013-02-22 20:45:00,
2013-02-22 13:55:00,42.1,16.8,-100.00,SSW,212,13.0,22.6,35,0.00,,,-99.99,463.0,HOBO +U30 +Weather +,2013-02-22 20:55:00,
2013-02-22 14:05:00,41.7,15.3,-100.00,SSW,213,12.3,20.4,33,0.00,,,-99.99,272.0,HOBO +U30 +Weather +,2013-02-22 21:05:00,
2013-02-22 14:10:00,41.9,15.3,-100.00,SSW,204,10.7,19.2,33,0.00,,,-99.99,373.0,HOBO +U30 +Weather +,2013-02-22 21:10:00,
2013-02-22 14:15:00,42.0,15.1,-100.00,SSW,209,12.3,18.6,33,0.00,,,-99.99,419.0,HOBO +U30 +Weather +,2013-02-22 21:15:00,
2013-02-22 14:20:00,42.1,13.7,-100.00,SSW,209,11.2,20.4,31,0.00,,,-99.99,374.0,HOBO +U30 +Weather +,2013-02-22 21:20:00,
2013-02-22 14:25:00,41.7,13.7,-100.00,SSW,202,13.4,19.7,31,0.00,,,-99.99,371.0,HOBO +U30 +Weather +,2013-02-22 21:25:00,
2013-02-22 14:30:00,42.9,13.7,-100.00,SSW,202,10.1,16.3,30,0.00,,,-99.99,417.0,HOBO +U30 +Weather +,2013-02-22 21:30:00,
2013-02-22 14:35:00,42.3,13.8,-100.00,SSW,202,11.2,19.2,30,0.00,,,-99.99,407.0,HOBO +U30 +Weather +,2013-02-22 21:35:00,
2013-02-22 14:40:00,42.3,13.6,-100.00,SSW,205,12.3,18.6,30,0.00,,,-99.99,397.0,HOBO +U30 +Weather +,2013-02-22 21:40:00,
2013-02-22 14:45:00,42.8,13.3,-100.00,SSW,199,12.3,19.7,29,0.00,,,-99.99,386.0,HOBO +U30 +Weather +,2013-02-22 21:45:00,
2013-02-22 14:50:00,43.7,13.9,-100.00,SSW,197,10.1,17.0,29,0.00,,,-99.99,383.0,HOBO +U30 +Weather +,2013-02-22 21:50:00,
2013-02-22 14:55:00,42.5,13.3,-100.00,SSW,199,11.2,20.4,30,0.00,,,-99.99,372.0,HOBO +U30 +Weather +,2013-02-22 21:55:00,
2013-02-22 15:00:00,42.3,12.6,-100.00,SSW,211,12.3,20.4,29,0.00,,,-99.99,322.0,HOBO +U30 +Weather +,2013-02-22 22:00:00,
2013-02-22 15:20:00,42.8,13.4,-100.00,SSW,198,11.2,17.4,29,0.00,,,-99.99,373.0,HOBO +U30 +Weather +,2013-02-22 22:20:00,
2013-02-22 15:25:00,43.3,14.3,-100.00,SSW,195,11.2,19.2,30,0.00,,,-99.99,382.0,HOBO +U30 +Weather +,2013-02-22 22:25:00,
2013-02-22 15:30:00,42.9,13.5,-100.00,SSW,198,11.2,17.4,29,0.00,,,-99.99,376.0,HOBO +U30 +Weather +,2013-02-22 22:30:00,
2013-02-22 15:35:00,42.8,13.5,-100.00,South,187,13.4,17.4,29,0.00,,,-99.99,322.0,HOBO +U30 +Weather +,2013-02-22 22:35:00,
2013-02-22 15:40:00,43.4,12.9,-100.00,SSW,208,9.6,17.0,28,0.00,,,-99.99,332.0,HOBO +U30 +Weather +,2013-02-22 22:40:00,
2013-02-22 16:00:00,44.2,14.0,-100.00,SSW,213,8.5,14.1,29,0.00,,,-99.99,278.0,HOBO +U30 +Weather +,2013-02-22 23:00:00,
2013-02-22 16:05:00,43.4,13.7,-100.00,SW,220,7.4,13.4,29,0.00,,,-99.99,264.0,HOBO +U30 +Weather +,2013-02-22 23:05:00,
2013-02-22 16:10:00,42.6,13.6,-100.00,SW,226,11.2,17.4,30,0.00,,,-99.99,212.0,HOBO +U30 +Weather +,2013-02-22 23:10:00,
2013-02-22 16:15:00,42.4,14.6,-100.00,SW,219,12.3,18.6,31,0.00,,,-99.99,163.0,HOBO +U30 +Weather +,2013-02-22 23:15:00,
2013-02-22 16:20:00,42.3,14.0,-100.00,SW,222,10.7,19.2,31,0.00,,,-99.99,142.0,HOBO +U30 +Weather +,2013-02-22 23:20:00,
2013-02-22 16:25:00,42.0,14.3,-100.00,SW,220,11.2,19.2,31,0.00,,,-99.99,114.0,HOBO +U30 +Weather +,2013-02-22 23:25:00,
2013-02-22 16:30:00,41.9,14.1,-100.00,SW,215,10.7,15.9,31,0.00,,,-99.99,124.0,HOBO +U30 +Weather +,2013-02-22 23:30:00,
2013-02-22 16:35:00,41.8,14.0,-100.00,SW,225,10.1,16.3,31,0.00,,,-99.99,124.0,HOBO +U30 +Weather +,2013-02-22 23:35:00,
2013-02-22 16:45:00,41.2,14.5,-100.00,SW,218,11.9,18.6,33,0.00,,,-99.99,128.0,HOBO +U30 +Weather +,2013-02-22 23:45:00,
2013-02-22 16:50:00,41.2,14.9,-100.00,SW,218,9.6,15.9,33,0.00,,,-99.99,114.0,HOBO +U30 +Weather +,2013-02-22 23:50:00,
2013-02-22 16:55:00,40.9,14.9,-100.00,SW,218,11.2,18.6,34,0.00,,,-99.99,116.0,HOBO +U30 +Weather +,2013-02-22 23:55:00,
2013-02-22 17:10:00,40.5,15.3,-100.00,SW,215,10.1,18.1,35,0.00,,,-99.99,64.0,HOBO +U30 +Weather +,2013-02-23 00:10:00,
2013-02-22 17:15:00,40.4,15.6,-100.00,SSW,209,8.9,15.9,35,0.00,,,-99.99,48.0,HOBO +U30 +Weather +,2013-02-23 00:15:00,
2013-02-22 17:20:00,40.2,15.5,-100.00,SW,219,8.5,14.5,36,0.00,,,-99.99,38.0,HOBO +U30 +Weather +,2013-02-23 00:20:00,
2013-02-22 17:25:00,39.9,15.4,-100.00,SW,233,8.5,14.1,36,0.00,,,-99.99,29.0,HOBO +U30 +Weather +,2013-02-23 00:25:00,
2013-02-22 17:30:00,39.7,15.6,-100.00,WSW,237,6.7,13.0,37,0.00,,,-99.99,22.0,HOBO +U30 +Weather +,2013-02-23 00:30:00,
2013-02-22 17:35:00,39.5,15.5,-100.00,WSW,239,6.3,11.9,37,0.00,,,-99.99,16.0,HOBO +U30 +Weather +,2013-02-23 00:35:00,
2013-02-22 17:40:00,39.3,15.4,-100.00,SW,230,5.6,8.9,37,0.00,,,-99.99,9.0,HOBO +U30 +Weather +,2013-02-23 00:40:00,
2013-02-22 17:45:00,39.1,15.7,-100.00,WSW,246,6.7,11.2,38,0.00,,,-99.99,4.0,HOBO +U30 +Weather +,2013-02-23 00:45:00,
2013-02-22 17:50:00,38.8,15.7,-100.00,WSW,257,4.0,7.4,38,0.00,,,-99.99,2.0,HOBO +U30 +Weather +,2013-02-23 00:50:00,
2013-02-22 17:55:00,38.3,15.5,-100.00,WSW,257,5.1,8.9,38,0.00,,,-99.99,1.0,HOBO +U30 +Weather +,2013-02-23 00:55:00,
2013-02-22 18:00:00,38.1,15.7,-100.00,WSW,257,3.4,8.5,39,0.00,,,-99.99,1.0,HOBO +U30 +Weather +,2013-02-23 01:00:00,
2013-02-22 18:05:00,37.6,15.5,-100.00,WSW,256,7.4,13.0,40,0.00,,,-99.99,1.0,HOBO +U30 +Weather +,2013-02-23 01:05:00,
2013-02-22 18:10:00,37.4,15.8,-100.00,WSW,248,6.3,10.1,40,0.00,,,-99.99,1.0,HOBO +U30 +Weather +,2013-02-23 01:10:00,
2013-02-22 18:15:00,36.8,16.1,-100.00,WSW,250,6.3,11.9,42,0.00,,,-99.99,1.0,HOBO +U30 +Weather +,2013-02-23 01:15:00,
2013-02-22 18:25:00,36.2,16.6,-100.00,WSW,248,6.3,10.7,44,0.00,,,-99.99,1.0,HOBO +U30 +Weather +,2013-02-23 01:25:00,
2013-02-22 18:30:00,35.9,16.6,-100.00,WSW,247,6.7,10.7,44,0.00,,,-99.99,1.0,HOBO +U30 +Weather +,2013-02-23 01:30:00,
2013-02-22 18:35:00,35.7,16.6,-100.00,WSW,247,6.3,10.7,45,0.00,,,-99.99,1.0,HOBO +U30 +Weather +,2013-02-23 01:35:00,
2013-02-22 18:40:00,35.5,16.7,-100.00,WSW,247,6.3,9.6,45,0.00,,,-99.99,1.0,HOBO +U30 +Weather +,2013-02-23 01:40:00,
2013-02-22 18:45:00,35.1,16.5,-100.00,WSW,247,8.5,11.9,46,0.00,,,-99.99,1.0,HOBO +U30 +Weather +,2013-02-23 01:45:00,
2013-02-22 18:50:00,35.0,16.5,-100.00,WSW,244,6.7,11.2,46,0.00,,,-99.99,1.0,HOBO +U30 +Weather +,2013-02-23 01:50:00,
2013-02-22 18:55:00,34.7,16.4,-100.00,WSW,240,6.7,10.1,46,0.00,,,-99.99,1.0,HOBO +U30 +Weather +,2013-02-23 01:55:00,
2013-02-22 19:00:00,34.6,16.4,-100.00,WSW,240,6.3,11.2,46,0.00,,,-99.99,1.0,HOBO +U30 +Weather +,2013-02-23 02:00:00,
2013-02-22 19:05:00,34.5,16.4,-100.00,WSW,250,5.6,9.6,47,0.00,,,-99.99,1.0,HOBO +U30 +Weather +,2013-02-23 02:05:00,
2013-02-22 19:10:00,34.4,16.4,-100.00,WSW,248,5.1,8.9,47,0.00,,,-99.99,1.0,HOBO +U30 +Weather +,2013-02-23 02:10:00,
2013-02-22 19:15:00,34.3,16.3,-100.00,WSW,239,4.0,7.8,47,0.00,,,-99.99,1.0,HOBO +U30 +Weather +,2013-02-23 02:15:00,
2013-02-22 19:20:00,34.0,16.4,-100.00,SSW,201,2.9,5.6,48,0.00,,,-99.99,1.0,HOBO +U30 +Weather +,2013-02-23 02:20:00,
2013-02-22 19:25:00,33.6,16.3,-100.00,SSW,197,3.4,6.7,48,0.00,,,-99.99,1.0,HOBO +U30 +Weather +,2013-02-23 02:25:00,
2013-02-22 19:30:00,33.7,16.5,-100.00,SSW,204,2.9,6.3,48,0.00,,,-99.99,1.0,HOBO +U30 +Weather +,2013-02-23 02:30:00,
2013-02-22 19:35:00,33.6,16.6,-100.00,SSW,201,2.9,6.3,49,0.00,,,-99.99,1.0,HOBO +U30 +Weather +,2013-02-23 02:35:00,
2013-02-22 19:40:00,33.4,16.5,-100.00,SSW,209,4.0,6.3,49,0.00,,,-99.99,1.0,HOBO +U30 +Weather +,2013-02-23 02:40:00,
2013-02-22 19:45:00,33.4,16.5,-100.00,SSW,206,3.4,6.3,49,0.00,,,-99.99,1.0,HOBO +U30 +Weather +,2013-02-23 02:45:00,
2013-02-22 19:50:00,33.5,16.7,-100.00,SSW,211,1.1,4.0,49,0.00,,,-99.99,1.0,HOBO +U30 +Weather +,2013-02-23 02:50:00,
2013-02-22 19:55:00,33.3,16.5,-100.00,SSW,208,2.2,5.1,49,0.00,,,-99.99,1.0,HOBO +U30 +Weather +,2013-02-23 02:55:00,
2013-02-22 20:00:00,33.4,16.5,-100.00,SW,219,1.8,4.5,49,0.00,,,-99.99,1.0,HOBO +U30 +Weather +,2013-02-23 03:00:00,
2013-02-22 20:15:00,33.0,16.2,-100.00,SW,229,1.8,4.0,49,0.00,,,-99.99,1.0,HOBO +U30 +Weather +,2013-02-23 03:15:00,
2013-02-22 20:20:00,32.7,16.2,-100.00,SW,220,1.1,4.0,50,0.00,,,-99.99,1.0,HOBO +U30 +Weather +,2013-02-23 03:20:00,
2013-02-22 20:25:00,32.5,16.3,-100.00,SSW,198,1.1,4.5,50,0.00,,,-99.99,1.0,HOBO +U30 +Weather +,2013-02-23 03:25:00,
2013-02-22 20:30:00,32.2,16.2,-100.00,SSW,197,2.2,4.0,51,0.00,,,-99.99,1.0,HOBO +U30 +Weather +,2013-02-23 03:30:00,
2013-02-22 20:35:00,31.7,16.4,-100.00,South,183,3.4,5.1,52,0.00,,,-99.99,1.0,HOBO +U30 +Weather +,2013-02-23 03:35:00,
2013-02-22 20:40:00,31.6,16.6,-100.00,South,173,3.4,5.1,53,0.00,,,-99.99,1.0,HOBO +U30 +Weather +,2013-02-23 03:40:00,
2013-02-22 20:45:00,31.7,16.7,-100.00,South,191,2.2,4.5,53,0.00,,,-99.99,1.0,HOBO +U30 +Weather +,2013-02-23 03:45:00,
2013-02-22 20:50:00,31.9,16.6,-100.00,South,178,2.9,5.1,52,0.00,,,-99.99,1.0,HOBO +U30 +Weather +,2013-02-23 03:50:00,
2013-02-22 20:55:00,31.6,16.9,-100.00,South,178,2.2,4.5,54,0.00,,,-99.99,1.0,HOBO +U30 +Weather +,2013-02-23 03:55:00,
2013-02-22 21:00:00,31.5,16.9,-100.00,South,178,1.8,4.0,54,0.00,,,-99.99,1.0,HOBO +U30 +Weather +,2013-02-23 04:00:00,
2013-02-22 21:05:00,32.0,16.6,-100.00,South,191,3.4,5.6,52,0.00,,,-99.99,1.0,HOBO +U30 +Weather +,2013-02-23 04:05:00,
2013-02-22 21:10:00,31.8,16.7,-100.00,South,178,3.4,5.1,53,0.00,,,-99.99,1.0,HOBO +U30 +Weather +,2013-02-23 04:10:00,
2013-02-22 21:15:00,31.9,17.1,-100.00,SSW,199,1.1,2.9,54,0.00,,,-99.99,1.0,HOBO +U30 +Weather +,2013-02-23 04:15:00,
2013-02-22 21:20:00,31.9,17.3,-100.00,SSW,208,2.2,6.3,54,0.00,,,-99.99,1.0,HOBO +U30 +Weather +,2013-02-23 04:20:00,
2013-02-22 21:25:00,31.6,17.3,-100.00,SSW,201,2.2,4.0,54,0.00,,,-99.99,1.0,HOBO +U30 +Weather +,2013-02-23 04:25:00,
2013-02-22 21:30:00,31.4,17.0,-100.00,SSW,199,1.8,4.0,54,0.00,,,-99.99,1.0,HOBO +U30 +Weather +,2013-02-23 04:30:00,
2013-02-22 21:35:00,31.1,17.4,-100.00,SSW,199,1.8,2.9,56,0.00,,,-99.99,1.0,HOBO +U30 +Weather +,2013-02-23 04:35:00,
2013-02-22 21:40:00,30.9,17.1,-100.00,South,178,2.9,4.5,55,0.00,,,-99.99,1.0,HOBO +U30 +Weather +,2013-02-23 04:40:00,
2013-02-22 21:45:00,30.6,17.3,-100.00,South,171,2.9,4.5,57,0.00,,,-99.99,1.0,HOBO +U30 +Weather +,2013-02-23 04:45:00,
2013-02-22 21:50:00,30.5,17.4,-100.00,South,174,3.4,7.4,57,0.00,,,-99.99,1.0,HOBO +U30 +Weather +,2013-02-23 04:50:00,
2013-02-22 21:55:00,30.1,18.0,-100.00,South,190,3.4,5.1,60,0.00,,,-99.99,1.0,HOBO +U30 +Weather +,2013-02-23 04:55:00,
2013-02-22 22:00:00,30.2,17.7,-100.00,South,190,3.4,5.6,59,0.00,,,-99.99,1.0,HOBO +U30 +Weather +,2013-02-23 05:00:00,
2013-02-22 22:05:00,30.5,17.5,-100.00,South,190,4.0,5.6,58,0.00,,,-99.99,1.0,HOBO +U30 +Weather +,2013-02-23 05:05:00,
2013-02-22 22:10:00,30.7,17.4,-100.00,South,185,4.0,5.1,57,0.00,,,-99.99,1.0,HOBO +U30 +Weather +,2013-02-23 05:10:00,
2013-02-22 22:15:00,29.9,17.9,-100.00,South,174,3.4,6.3,60,0.00,,,-99.99,1.0,HOBO +U30 +Weather +,2013-02-23 05:15:00,
2013-02-22 22:20:00,29.4,18.2,-100.00,SSE,167,3.4,6.3,62,0.00,,,-99.99,1.0,HOBO +U30 +Weather +,2013-02-23 05:20:00,
2013-02-22 22:25:00,29.4,18.4,-100.00,South,178,2.9,5.1,63,0.00,,,-99.99,1.0,HOBO +U30 +Weather +,2013-02-23 05:25:00,
2013-02-22 22:30:00,30.4,17.9,-100.00,South,188,2.9,4.5,59,0.00,,,-99.99,1.0,HOBO +U30 +Weather +,2013-02-23 05:30:00,
2013-02-22 22:35:00,30.4,17.9,-100.00,South,187,1.8,5.1,59,0.00,,,-99.99,1.0,HOBO +U30 +Weather +,2013-02-23 05:35:00,
2013-02-22 22:40:00,30.4,18.1,-100.00,South,185,2.9,4.5,59,0.00,,,-99.99,1.0,HOBO +U30 +Weather +,2013-02-23 05:40:00,
2013-02-22 22:45:00,30.1,18.2,-100.00,South,183,3.4,5.6,60,0.00,,,-99.99,1.0,HOBO +U30 +Weather +,2013-02-23 05:45:00,
2013-02-22 22:50:00,29.8,18.4,-100.00,South,170,3.4,5.1,62,0.00,,,-99.99,1.0,HOBO +U30 +Weather +,2013-02-23 05:50:00,
2013-02-22 22:55:00,29.8,18.4,-100.00,South,178,3.4,5.1,62,0.00,,,-99.99,1.0,HOBO +U30 +Weather +,2013-02-23 05:55:00,
2013-02-22 23:00:00,29.4,18.5,-100.00,South,173,3.4,6.3,63,0.00,,,-99.99,1.0,HOBO +U30 +Weather +,2013-02-23 06:00:00,
2013-02-22 23:05:00,29.4,18.4,-100.00,South,181,4.0,6.3,63,0.00,,,-99.99,1.0,HOBO +U30 +Weather +,2013-02-23 06:05:00,
2013-02-22 23:10:00,29.2,18.6,-100.00,South,181,2.9,5.1,63,0.00,,,-99.99,1.0,HOBO +U30 +Weather +,2013-02-23 06:10:00,
2013-02-22 23:15:00,29.4,18.5,-100.00,South,180,3.4,5.1,63,0.00,,,-99.99,1.0,HOBO +U30 +Weather +,2013-02-23 06:15:00,
2013-02-22 23:20:00,29.3,18.5,-100.00,South,187,3.4,4.5,63,0.00,,,-99.99,1.0,HOBO +U30 +Weather +,2013-02-23 06:20:00,
2013-02-22 23:25:00,29.5,18.4,-100.00,South,181,4.5,6.3,62,0.00,,,-99.99,1.0,HOBO +U30 +Weather +,2013-02-23 06:25:00,
2013-02-22 23:30:00,29.6,18.6,-100.00,South,187,3.4,6.3,63,0.00,,,-99.99,1.0,HOBO +U30 +Weather +,2013-02-23 06:30:00,
2013-02-22 23:35:00,29.0,18.5,-100.00,South,178,1.8,4.0,64,0.00,,,-99.99,1.0,HOBO +U30 +Weather +,2013-02-23 06:35:00,
2013-02-22 23:40:00,28.8,18.6,-100.00,South,184,2.2,4.5,65,0.00,,,-99.99,1.0,HOBO +U30 +Weather +,2013-02-23 06:40:00,
2013-02-22 23:45:00,28.9,18.6,-100.00,South,180,2.9,4.0,64,0.00,,,-99.99,1.0,HOBO +U30 +Weather +,2013-02-23 06:45:00,
2013-02-22 23:50:00,29.0,18.4,-100.00,South,185,2.9,5.6,64,0.00,,,-99.99,1.0,HOBO +U30 +Weather +,2013-02-23 06:50:00,
2013-02-22 23:55:00,29.4,18.6,-100.00,SSW,195,2.9,5.1,63,0.00,,,-99.99,1.0,HOBO +U30 +Weather +,2013-02-23 06:55:00,